Time;durP1;ratioP1;P1;durP2;ratioP2;P2;SDS_P1;SDS_P2;PMS_P1;PMS_P2;Temp;Humidity;BMP_temperature;BMP_pressure;BME280_temperature;BME280_humidity;BME280_pressure;Samples;Min_cycle;Max_cycle;Signal;HPM_P1;HPM_P2
2022/10/09 00:00:10;;;;;;;933.90;872.03;;;4.90;99.90;;;;;;4977945;28;20479;-82
2022/10/09 00:02:37;;;;;;;925.47;863.73;;;4.90;99.90;;;;;;4978061;28;20459;-82
2022/10/09 00:05:04;;;;;;;914.80;853.30;;;4.90;99.90;;;;;;4977644;28;20479;-82
2022/10/09 00:07:31;;;;;;;913.30;850.30;;;4.80;99.90;;;;;;4977457;28;20963;-82
2022/10/09 00:09:57;;;;;;;911.07;849.17;;;4.60;99.90;;;;;;4977427;28;20474;-82
2022/10/09 00:12:24;;;;;;;912.50;848.13;;;4.70;99.90;;;;;;4978030;28;20456;-82
2022/10/09 00:14:52;;;;;;;907.50;846.13;;;4.60;99.90;;;;;;4976548;28;20960;-82
2022/10/09 00:17:19;;;;;;;914.00;850.90;;;4.60;99.90;;;;;;4977697;28;20461;-81
2022/10/09 00:19:45;;;;;;;916.77;848.87;;;4.60;99.90;;;;;;4978027;28;20565;-82
2022/10/09 00:22:12;;;;;;;913.93;848.57;;;4.70;99.90;;;;;;4977737;28;20451;-82
2022/10/09 00:24:39;;;;;;;909.00;845.23;;;4.60;99.90;;;;;;4977355;28;20495;-82
2022/10/09 00:27:06;;;;;;;901.87;840.17;;;4.50;99.90;;;;;;4977632;28;20463;-82
2022/10/09 00:29:32;;;;;;;899.77;839.13;;;4.50;99.90;;;;;;4977497;28;20479;-82
2022/10/09 00:32:00;;;;;;;919.10;850.20;;;4.30;99.90;;;;;;4978150;28;20451;-82
2022/10/09 00:34:27;;;;;;;911.07;841.10;;;4.50;99.90;;;;;;4977562;28;20462;-82
2022/10/09 00:36:54;;;;;;;918.37;847.57;;;4.50;99.90;;;;;;4977896;28;20455;-82
2022/10/09 00:39:20;;;;;;;913.53;842.13;;;4.60;99.90;;;;;;4976892;28;20471;-82
2022/10/09 00:41:47;;;;;;;921.73;851.13;;;4.50;99.90;;;;;;4977615;28;21069;-82
2022/10/09 00:44:50;;;;;;;907.03;835.33;;;4.50;99.90;;;;;;4976634;28;20490;-82
2022/10/09 00:47:23;;;;;;;919.63;842.83;;;4.60;99.90;;;;;;4977251;28;20461;-82
2022/10/09 00:49:57;;;;;;;920.53;845.40;;;4.60;99.90;;;;;;4977637;28;20490;-82
2022/10/09 00:52:24;;;;;;;918.67;844.20;;;4.60;99.90;;;;;;4977110;28;20444;-82
2022/10/09 00:54:52;;;;;;;920.23;845.03;;;4.60;99.90;;;;;;4976996;28;20450;-82
2022/10/09 00:57:20;;;;;;;915.77;841.07;;;4.60;99.90;;;;;;4977354;28;20455;-82
2022/10/09 00:59:47;;;;;;;916.40;843.70;;;4.60;99.90;;;;;;4978011;28;20475;-82
2022/10/09 01:02:13;;;;;;;930.23;858.50;;;4.50;99.90;;;;;;4978783;28;20473;-82
2022/10/09 01:04:41;;;;;;;927.00;857.03;;;4.50;99.90;;;;;;4980227;28;20479;-82
2022/10/09 01:07:33;;;;;;;928.77;859.30;;;4.40;99.90;;;;;;4980714;28;20455;-82
2022/10/09 01:10:05;;;;;;;937.27;864.80;;;4.40;99.90;;;;;;4980416;28;20482;-82
2022/10/09 01:12:45;;;;;;;923.30;855.47;;;4.30;99.90;;;;;;4981082;28;20464;-82
2022/10/09 01:15:18;;;;;;;913.70;841.60;;;4.20;99.90;;;;;;4980252;28;20466;-82
2022/10/09 01:17:57;;;;;;;923.77;851.53;;;4.20;99.90;;;;;;4980424;28;20482;-81
2022/10/09 01:20:38;;;;;;;922.37;848.87;;;4.20;99.90;;;;;;4980997;28;20458;-82
2022/10/09 01:23:30;;;;;;;926.80;854.53;;;4.10;99.90;;;;;;4980221;28;20459;-81
2022/10/09 01:26:06;;;;;;;923.93;852.57;;;4.00;99.90;;;;;;4980244;28;20833;-81
2022/10/09 01:28:35;;;;;;;919.60;849.03;;;4.20;99.90;;;;;;4980546;28;20474;-81
2022/10/09 01:31:07;;;;;;;923.23;853.67;;;4.10;99.90;;;;;;4980514;28;20731;-82
2022/10/09 01:33:34;;;;;;;924.77;851.77;;;4.00;99.90;;;;;;4980032;28;20458;-82
2022/10/09 01:36:02;;;;;;;931.13;858.13;;;3.90;99.90;;;;;;4980181;28;20458;-81
2022/10/09 01:38:30;;;;;;;919.00;848.20;;;3.90;99.90;;;;;;4979846;28;20470;-82
2022/10/09 01:40:58;;;;;;;921.60;851.40;;;3.90;99.90;;;;;;4980973;28;20459;-82
2022/10/09 01:43:25;;;;;;;919.90;848.70;;;3.90;99.90;;;;;;4979857;28;20455;-82
2022/10/09 01:46:13;;;;;;;914.90;844.70;;;4.00;99.90;;;;;;4978798;28;20485;-81
2022/10/09 01:48:40;;;;;;;915.70;844.93;;;4.00;99.90;;;;;;4979986;28;20479;-81
2022/10/09 01:51:07;;;;;;;908.23;837.23;;;3.90;99.90;;;;;;4979752;28;20459;-82
2022/10/09 01:53:36;;;;;;;911.37;837.90;;;3.80;99.90;;;;;;4980126;28;20451;-81
2022/10/09 01:56:07;;;;;;;906.37;833.60;;;3.80;99.90;;;;;;4979128;28;20462;-82
2022/10/09 01:58:38;;;;;;;924.70;848.70;;;3.90;99.90;;;;;;4979954;28;20487;-82
2022/10/09 02:01:11;;;;;;;917.67;842.87;;;3.80;99.90;;;;;;4979760;28;20964;-82
2022/10/09 02:03:42;;;;;;;925.33;850.53;;;3.80;99.90;;;;;;4979523;28;20455;-82
2022/10/09 02:06:12;;;;;;;926.43;852.93;;;3.90;99.90;;;;;;4979467;28;20455;-82
2022/10/09 02:08:40;;;;;;;927.33;850.83;;;3.80;99.90;;;;;;4980083;28;20482;-82
2022/10/09 02:11:09;;;;;;;925.47;850.30;;;3.70;99.90;;;;;;4979666;28;20458;-82
2022/10/09 02:13:37;;;;;;;931.63;855.03;;;3.70;99.90;;;;;;4978409;28;20901;-80
2022/10/09 02:16:13;;;;;;;927.17;850.10;;;3.70;99.90;;;;;;4978822;28;20492;-81
2022/10/09 02:18:44;;;;;;;925.90;846.70;;;3.70;99.90;;;;;;4980239;28;20992;-81
2022/10/09 02:21:15;;;;;;;921.43;841.23;;;3.90;99.90;;;;;;4979930;28;20450;-82
2022/10/09 02:23:43;;;;;;;921.67;842.40;;;3.90;99.90;;;;;;4981409;28;20459;-82
2022/10/09 02:26:10;;;;;;;928.67;849.07;;;4.10;99.90;;;;;;4981397;28;20808;-81
2022/10/09 02:28:37;;;;;;;923.93;846.07;;;4.00;99.90;;;;;;4981416;28;20478;-81
2022/10/09 02:31:11;;;;;;;930.03;852.43;;;4.00;99.90;;;;;;4980118;28;20451;-81
2022/10/09 02:33:38;;;;;;;935.70;859.50;;;3.90;99.90;;;;;;4978916;28;20863;-81
2022/10/09 02:36:04;;;;;;;937.30;861.70;;;3.80;99.90;;;;;;4978189;28;20458;-82
2022/10/09 02:38:31;;;;;;;935.57;860.13;;;3.70;99.90;;;;;;4979289;28;20471;-82
2022/10/09 02:40:59;;;;;;;933.53;856.93;;;3.70;99.90;;;;;;4978449;28;20482;-81
2022/10/09 02:43:26;;;;;;;930.77;853.03;;;3.80;99.90;;;;;;4979460;28;20466;-82
2022/10/09 02:45:52;;;;;;;930.80;853.80;;;3.80;99.90;;;;;;4978243;28;20485;-81
2022/10/09 02:48:21;;;;;;;935.77;858.40;;;3.80;99.90;;;;;;4979188;28;20478;-82
2022/10/09 02:50:47;;;;;;;932.27;855.70;;;3.80;99.90;;;;;;4978803;28;20846;-82
2022/10/09 02:53:14;;;;;;;938.43;859.30;;;3.80;99.90;;;;;;4978626;28;20450;-82
2022/10/09 02:55:41;;;;;;;935.23;854.90;;;4.00;99.90;;;;;;4977756;28;20447;-82
2022/10/09 02:58:07;;;;;;;933.03;854.07;;;4.10;99.90;;;;;;4979015;28;20463;-81
2022/10/09 03:00:34;;;;;;;936.23;858.50;;;4.10;99.90;;;;;;4978193;28;20451;-82
2022/10/09 03:03:01;;;;;;;940.53;861.33;;;4.00;99.90;;;;;;4978851;28;20458;-82
2022/10/09 03:05:29;;;;;;;935.73;856.33;;;4.00;99.90;;;;;;4977648;28;20518;-81
2022/10/09 03:07:56;;;;;;;938.23;860.03;;;4.00;99.90;;;;;;4978691;28;20459;-82
2022/10/09 03:10:22;;;;;;;935.77;857.00;;;3.90;99.90;;;;;;4978630;28;20461;-82
2022/10/09 03:12:49;;;;;;;948.93;869.07;;;3.90;99.90;;;;;;4978378;28;20451;-81
2022/10/09 03:15:16;;;;;;;942.37;862.37;;;3.80;99.90;;;;;;4977049;28;20443;-80
2022/10/09 03:17:43;;;;;;;941.67;862.57;;;3.80;99.90;;;;;;4978826;28;20553;-82
2022/10/09 03:20:10;;;;;;;941.20;863.77;;;3.70;99.90;;;;;;4978441;28;20507;-81
2022/10/09 03:22:38;;;;;;;940.67;862.93;;;3.70;99.90;;;;;;4978469;28;20459;-81
2022/10/09 03:25:05;;;;;;;939.43;862.23;;;3.60;99.90;;;;;;4976792;28;20474;-81
2022/10/09 03:27:32;;;;;;;945.63;868.70;;;3.60;99.90;;;;;;4978475;28;20502;-82
2022/10/09 03:29:59;;;;;;;940.97;865.17;;;3.50;99.90;;;;;;4978086;28;20861;-81
2022/10/09 03:32:26;;;;;;;946.27;870.57;;;3.30;99.90;;;;;;4980944;28;20535;-83
2022/10/09 03:34:53;;;;;;;933.60;857.60;;;3.30;99.90;;;;;;4984053;28;20459;-81
2022/10/09 03:37:19;;;;;;;936.10;860.30;;;3.40;99.90;;;;;;4977791;28;20455;-81
2022/10/09 03:39:47;;;;;;;942.77;867.10;;;3.30;99.90;;;;;;4977407;28;20542;-83
2022/10/09 03:42:14;;;;;;;946.70;870.60;;;3.20;99.90;;;;;;4976048;28;20466;-82
2022/10/09 03:44:41;;;;;;;940.00;865.40;;;3.20;99.90;;;;;;4975046;28;20475;-81
2022/10/09 03:47:08;;;;;;;942.07;867.77;;;3.10;99.90;;;;;;4975551;28;20454;-81
2022/10/09 03:49:34;;;;;;;934.93;860.13;;;3.10;99.90;;;;;;4978372;28;20479;-82
2022/10/09 03:52:01;;;;;;;941.90;866.40;;;3.10;99.90;;;;;;4964188;28;20456;-81
2022/10/09 03:54:28;;;;;;;936.03;860.10;;;3.10;99.90;;;;;;4967316;28;20479;-81
2022/10/09 03:56:56;;;;;;;934.60;858.47;;;3.10;99.90;;;;;;4978135;28;20451;-82
2022/10/09 03:59:23;;;;;;;926.43;850.83;;;3.10;99.90;;;;;;4976536;28;20475;-82
2022/10/09 04:01:49;;;;;;;925.60;848.23;;;3.10;99.90;;;;;;4976970;28;20459;-81
2022/10/09 04:04:16;;;;;;;932.33;855.27;;;3.20;99.90;;;;;;4976516;28;20960;-82
2022/10/09 04:06:43;;;;;;;922.13;845.13;;;3.10;99.90;;;;;;4976302;28;20466;-80
2022/10/09 04:09:10;;;;;;;919.60;842.20;;;3.20;99.90;;;;;;4976804;28;20859;-83
2022/10/09 04:11:36;;;;;;;920.60;842.90;;;3.20;99.90;;;;;;4981801;28;20451;-86
2022/10/09 04:14:04;;;;;;;917.10;840.50;;;3.20;99.90;;;;;;4975639;28;20734;-81
2022/10/09 04:16:31;;;;;;;910.37;832.80;;;3.30;99.90;;;;;;4976316;28;20462;-81
2022/10/09 04:18:58;;;;;;;909.07;830.50;;;3.30;99.90;;;;;;4978424;28;20479;-81
2022/10/09 04:21:24;;;;;;;913.67;834.87;;;3.30;99.90;;;;;;4976168;28;20457;-81
2022/10/09 04:23:52;;;;;;;918.07;839.77;;;3.30;99.90;;;;;;4976126;28;20462;-81
2022/10/09 04:26:19;;;;;;;914.03;835.47;;;3.20;99.90;;;;;;4976039;28;20841;-81
2022/10/09 04:28:45;;;;;;;919.43;842.63;;;3.10;99.90;;;;;;4974812;28;20479;-81
2022/10/09 04:31:13;;;;;;;919.03;841.60;;;3.00;99.90;;;;;;4977234;28;20450;-82
2022/10/09 04:33:40;;;;;;;919.70;842.77;;;3.10;99.90;;;;;;4976514;28;20455;-82
2022/10/09 04:36:07;;;;;;;920.70;842.93;;;3.00;99.90;;;;;;4974430;28;20490;-81
2022/10/09 04:38:34;;;;;;;910.00;832.47;;;3.00;99.90;;;;;;4981256;28;20475;-81
2022/10/09 04:41:02;;;;;;;908.17;830.43;;;3.10;99.90;;;;;;4981740;28;20774;-82
2022/10/09 04:43:30;;;;;;;914.70;837.50;;;3.20;99.90;;;;;;4978816;28;20477;-81
2022/10/09 04:45:57;;;;;;;919.87;842.60;;;3.10;99.90;;;;;;4981358;28;20450;-82
2022/10/09 04:48:25;;;;;;;919.50;841.17;;;3.10;99.90;;;;;;4981566;28;20481;-82
2022/10/09 04:50:52;;;;;;;923.17;842.87;;;3.00;99.90;;;;;;4978645;28;20463;-82
2022/10/09 04:53:18;;;;;;;919.53;837.10;;;3.00;99.90;;;;;;4981342;28;20455;-82
2022/10/09 04:55:45;;;;;;;918.50;834.83;;;3.20;99.90;;;;;;4980689;28;20477;-82
2022/10/09 04:58:13;;;;;;;919.07;834.77;;;3.20;99.90;;;;;;4966414;28;20474;-82
2022/10/09 05:00:41;;;;;;;923.10;838.90;;;3.50;99.90;;;;;;4981536;28;20510;-82
2022/10/09 05:03:08;;;;;;;929.67;844.40;;;3.40;99.90;;;;;;4981136;28;20876;-82
2022/10/09 05:05:36;;;;;;;934.80;849.80;;;3.60;99.90;;;;;;4981533;28;20982;-82
2022/10/09 05:08:03;;;;;;;945.87;858.97;;;3.60;99.90;;;;;;4982504;28;20461;-82
2022/10/09 05:10:30;;;;;;;929.00;843.40;;;3.80;99.90;;;;;;4982039;28;20462;-83
2022/10/09 05:12:57;;;;;;;931.77;846.10;;;3.90;99.90;;;;;;4980256;28;20951;-81
2022/10/09 05:15:24;;;;;;;930.73;845.60;;;3.80;99.90;;;;;;4980189;28;20995;-82
2022/10/09 05:17:51;;;;;;;933.53;847.30;;;3.90;99.90;;;;;;4980425;28;20473;-82
2022/10/09 05:20:18;;;;;;;940.20;853.70;;;4.00;99.90;;;;;;4965635;28;20467;-82
2022/10/09 05:22:46;;;;;;;938.50;851.10;;;4.00;99.90;;;;;;4980112;28;20454;-82
2022/10/09 05:25:14;;;;;;;943.60;856.63;;;4.00;99.90;;;;;;4980113;28;20466;-82
2022/10/09 05:27:40;;;;;;;935.63;848.87;;;4.00;99.90;;;;;;4981083;28;20980;-82
2022/10/09 05:30:08;;;;;;;933.77;847.13;;;4.00;99.90;;;;;;4980860;28;20486;-82
2022/10/09 05:32:35;;;;;;;932.80;845.60;;;4.00;99.90;;;;;;4980275;28;20459;-82
2022/10/09 05:35:03;;;;;;;942.93;853.93;;;3.90;99.90;;;;;;4979125;28;20507;-80
2022/10/09 05:37:29;;;;;;;933.17;845.87;;;3.90;99.90;;;;;;4980848;28;20894;-82
2022/10/09 05:39:58;;;;;;;929.67;841.93;;;3.90;99.90;;;;;;4980135;28;20475;-82
2022/10/09 05:42:24;;;;;;;927.73;840.23;;;3.90;99.90;;;;;;4980952;28;20459;-81
2022/10/09 05:44:51;;;;;;;929.80;840.57;;;3.80;99.90;;;;;;4976499;28;20967;-82
2022/10/09 05:47:18;;;;;;;926.63;839.30;;;3.90;99.90;;;;;;4980427;28;20459;-81
2022/10/09 05:49:45;;;;;;;943.90;855.97;;;3.90;99.90;;;;;;5001737;23;20490;-83
2022/10/09 05:52:12;;;;;;;934.23;846.83;;;3.80;99.90;;;;;;4993321;28;20462;-83
2022/10/09 05:54:40;;;;;;;930.60;843.90;;;3.90;99.90;;;;;;4994483;28;20454;-82
2022/10/09 05:57:08;;;;;;;933.83;847.60;;;3.80;99.90;;;;;;4995185;28;20458;-83
2022/10/09 05:59:35;;;;;;;935.90;849.70;;;3.60;99.90;;;;;;4993188;28;20962;-83
2022/10/09 06:02:13;;;;;;;937.33;850.57;;;3.50;99.90;;;;;;4996920;28;20820;-84
2022/10/09 06:04:39;;;;;;;929.73;842.43;;;3.50;99.90;;;;;;4993886;28;21018;-81
2022/10/09 06:07:06;;;;;;;925.30;839.20;;;3.50;99.90;;;;;;4993603;28;20454;-83
2022/10/09 06:09:33;;;;;;;922.83;837.80;;;3.60;99.90;;;;;;4994514;28;20474;-82
2022/10/09 06:11:59;;;;;;;924.10;838.80;;;3.60;99.90;;;;;;4994192;28;20462;-83
2022/10/09 06:14:28;;;;;;;932.00;846.63;;;3.70;99.90;;;;;;4992215;28;20564;-82
2022/10/09 06:16:54;;;;;;;922.87;837.60;;;3.70;99.90;;;;;;4994808;28;20477;-83
2022/10/09 06:19:22;;;;;;;918.07;833.27;;;3.70;99.90;;;;;;4994478;28;20553;-83
2022/10/09 06:21:49;;;;;;;925.40;839.90;;;3.70;99.90;;;;;;4994776;28;20458;-83
2022/10/09 06:24:19;;;;;;;916.83;831.87;;;3.70;99.90;;;;;;4994062;28;20469;-82
2022/10/09 06:26:46;;;;;;;913.87;829.17;;;3.70;99.90;;;;;;4994505;28;20451;-83
2022/10/09 06:29:12;;;;;;;920.87;835.57;;;3.80;99.90;;;;;;4994310;28;20470;-84
2022/10/09 06:31:40;;;;;;;929.07;841.10;;;3.80;99.90;;;;;;4994567;28;20466;-83
2022/10/09 06:34:09;;;;;;;927.57;840.97;;;3.90;99.90;;;;;;4994077;28;20842;-84
2022/10/09 06:36:36;;;;;;;924.60;838.00;;;4.10;99.90;;;;;;4994329;28;20505;-84
2022/10/09 06:39:06;;;;;;;928.03;841.70;;;4.10;99.90;;;;;;4994194;28;20465;-84
2022/10/09 06:41:34;;;;;;;924.43;838.27;;;4.30;99.90;;;;;;4994386;28;20841;-84
2022/10/09 06:44:03;;;;;;;923.33;836.90;;;4.40;99.90;;;;;;4995282;28;20481;-85
2022/10/09 06:46:31;;;;;;;923.70;837.60;;;4.40;99.90;;;;;;4993631;28;20453;-83
2022/10/09 06:49:00;;;;;;;923.40;837.70;;;4.50;99.90;;;;;;4993852;28;20525;-83
2022/10/09 06:51:28;;;;;;;925.87;840.07;;;4.70;99.90;;;;;;4993888;28;20455;-84
2022/10/09 06:53:57;;;;;;;925.27;839.77;;;4.80;99.90;;;;;;4994001;28;20461;-83
2022/10/09 06:56:25;;;;;;;933.37;846.73;;;4.90;99.90;;;;;;4993500;28;20893;-84
2022/10/09 06:58:52;;;;;;;929.07;841.53;;;5.00;99.90;;;;;;4993594;28;20970;-84
2022/10/09 07:01:20;;;;;;;923.47;836.37;;;5.20;99.90;;;;;;4993921;28;20458;-84
2022/10/09 07:03:52;;;;;;;928.80;841.30;;;5.30;99.90;;;;;;4993768;28;20458;-84
2022/10/09 07:06:22;;;;;;;917.50;830.00;;;5.40;99.90;;;;;;4993336;28;20450;-83
2022/10/09 07:09:01;;;;;;;925.47;837.60;;;5.50;99.90;;;;;;4993928;28;20458;-85
2022/10/09 07:11:42;;;;;;;926.40;838.70;;;5.60;99.90;;;;;;5000595;28;20553;-82
2022/10/09 07:14:11;;;;;;;926.40;837.80;;;5.70;99.90;;;;;;5000431;28;20970;-83
2022/10/09 07:17:08;;;;;;;924.57;836.60;;;5.90;99.90;;;;;;4998921;28;20927;-85
2022/10/09 07:19:35;;;;;;;924.00;835.00;;;6.00;99.90;;;;;;4996231;28;20478;-84
2022/10/09 07:22:03;;;;;;;926.20;839.50;;;6.20;99.90;;;;;;4998551;28;20442;-85
2022/10/09 07:28:44;;;;;;;923.93;836.17;;;6.40;99.90;;;;;;4834849;29;20445;-84
2022/10/09 07:31:11;;;;;;;928.80;842.30;;;6.50;99.90;;;;;;4849697;29;20488;-85
2022/10/09 07:34:01;;;;;;;931.07;845.97;;;6.60;99.90;;;;;;4944929;29;20444;-84
2022/10/09 07:37:24;;;;;;;927.03;845.13;;;6.70;99.90;;;;;;4979690;28;20489;-84
2022/10/09 07:40:16;;;;;;;929.47;848.67;;;6.90;99.90;;;;;;4963637;28;20480;-85
2022/10/09 07:49:47;;;;;;;922.60;847.13;;;7.10;99.90;;;;;;4992786;28;21034;-85
2022/10/09 07:52:14;;;;;;;925.00;849.77;;;7.30;99.90;;;;;;4996701;28;20817;-85
2022/10/09 07:58:48;;;;;;;924.60;852.30;;;7.50;99.90;;;;;;4938675;29;20444;-85
2022/10/09 08:01:58;;;;;;;911.93;844.63;;;7.70;99.90;;;;;;4956716;29;20447;-86
2022/10/09 08:04:46;;;;;;;898.00;832.40;;;7.60;99.90;;;;;;4985871;28;20446;-87
2022/10/09 08:12:56;;;;;;;881.33;821.50;;;8.00;99.90;;;;;;5019076;22;20496;-86
2022/10/09 08:15:41;;;;;;;869.33;812.37;;;8.10;99.90;;;;;;5015263;28;20453;-86
2022/10/09 08:22:04;;;;;;;805.60;757.60;;;8.40;99.90;;;;;;4994135;28;20830;-85
2022/10/09 08:27:01;;;;;;;652.87;622.67;;;8.70;99.90;;;;;;5070405;23;21092;-84
2022/10/09 08:29:28;;;;;;;585.10;560.07;;;8.90;99.90;;;;;;5018031;28;20449;-83
2022/10/09 08:31:56;;;;;;;313.13;300.47;;;9.00;99.90;;;;;;5017333;28;20457;-83
2022/10/09 08:34:23;;;;;;;205.63;197.80;;;9.10;99.90;;;;;;5017269;28;20969;-81
2022/10/09 08:36:50;;;;;;;48.43;45.93;;;9.20;99.90;;;;;;5017051;28;20472;-83
2022/10/09 08:39:17;;;;;;;35.43;33.33;;;9.20;99.90;;;;;;5016996;28;20449;-83
2022/10/09 08:41:47;;;;;;;35.93;33.73;;;9.40;99.90;;;;;;5017293;28;20441;-83
2022/10/09 08:44:18;;;;;;;26.80;24.70;;;9.60;99.90;;;;;;5017047;28;20449;-84
2022/10/09 08:47:02;;;;;;;17.70;10.90;;;9.80;99.90;;;;;;5017165;28;20840;-84
2022/10/09 08:49:36;;;;;;;15.63;7.80;;;10.20;99.90;;;;;;5017706;28;20449;-82
2022/10/09 08:52:16;;;;;;;8.93;6.07;;;10.60;99.90;;;;;;5018038;28;20544;-84
2022/10/09 08:54:44;;;;;;;7.63;4.90;;;11.00;99.90;;;;;;5017202;28;20835;-84
2022/10/09 08:57:15;;;;;;;11.23;4.27;;;11.40;99.90;;;;;;5018897;28;20449;-84
2022/10/09 08:59:42;;;;;;;16.50;4.40;;;11.80;99.90;;;;;;5019113;28;20968;-85
2022/10/09 09:02:30;;;;;;;9.83;5.17;;;12.10;99.90;;;;;;5020758;28;20448;-85
2022/10/09 09:05:14;;;;;;;9.27;4.70;;;12.40;98.90;;;;;;5017222;28;20467;-83
2022/10/09 09:07:50;;;;;;;8.03;4.30;;;12.90;99.90;;;;;;5018288;28;20552;-83
2022/10/09 09:10:25;;;;;;;9.10;4.23;;;13.10;97.00;;;;;;5012036;28;20456;-83
2022/10/09 09:13:02;;;;;;;11.60;4.10;;;13.60;97.00;;;;;;5018312;28;20464;-84
2022/10/09 09:15:43;;;;;;;10.80;4.07;;;13.70;92.70;;;;;;5021241;28;20482;-84
2022/10/09 09:18:23;;;;;;;12.57;4.07;;;14.00;93.00;;;;;;5017199;28;20518;-84
2022/10/09 09:20:53;;;;;;;7.23;4.00;;;14.30;89.30;;;;;;5021813;28;20458;-85
2022/10/09 09:23:26;;;;;;;16.30;4.17;;;14.70;85.10;;;;;;5023782;28;20458;-84
2022/10/09 09:25:53;;;;;;;8.23;3.47;;;14.90;86.00;;;;;;5025506;28;20481;-85
2022/10/09 09:28:24;;;;;;;8.27;3.30;;;15.30;84.30;;;;;;5025039;28;20466;-85
2022/10/09 09:30:54;;;;;;;8.50;3.00;;;15.30;76.70;;;;;;5027237;28;20461;-85
2022/10/09 09:33:31;;;;;;;6.37;3.30;;;15.60;74.10;;;;;;5027744;28;20527;-85
2022/10/09 09:36:07;;;;;;;11.53;5.97;;;15.80;71.80;;;;;;5026185;28;20480;-84
2022/10/09 09:38:33;;;;;;;8.90;4.00;;;16.20;70.40;;;;;;5027881;28;20457;-85
2022/10/09 09:41:00;;;;;;;8.33;3.90;;;16.60;69.50;;;;;;5027837;28;20463;-84
2022/10/09 09:43:27;;;;;;;10.93;3.80;;;16.60;65.70;;;;;;5027533;28;20779;-85
2022/10/09 09:45:56;;;;;;;12.43;3.43;;;16.60;63.10;;;;;;5027955;28;20482;-84
2022/10/09 09:48:31;;;;;;;11.30;2.93;;;16.80;61.20;;;;;;5029759;28;20455;-84
2022/10/09 09:50:58;;;;;;;11.70;3.40;;;17.10;59.20;;;;;;5026322;28;20465;-84
2022/10/09 09:53:29;;;;;;;11.77;5.20;;;17.30;57.60;;;;;;5025986;28;20464;-85
2022/10/09 09:55:56;;;;;;;9.63;3.23;;;17.50;55.30;;;;;;5024289;28;20572;-84
2022/10/09 09:58:28;;;;;;;7.80;3.63;;;17.70;56.00;;;;;;5025999;28;20477;-85
2022/10/09 10:00:57;;;;;;;8.73;3.70;;;17.70;52.80;;;;;;5027726;28;20463;-85
2022/10/09 10:03:25;;;;;;;10.47;3.10;;;18.00;51.30;;;;;;5027569;28;20456;-84
2022/10/09 10:05:52;;;;;;;8.50;3.10;;;18.10;52.30;;;;;;5027337;28;20482;-85
2022/10/09 10:08:24;;;;;;;9.03;2.93;;;18.10;49.30;;;;;;5026491;28;20457;-84
2022/10/09 10:10:52;;;;;;;11.20;2.90;;;18.40;49.30;;;;;;5027479;28;20455;-85
2022/10/09 10:13:21;;;;;;;5.77;3.00;;;18.20;47.50;;;;;;5026899;28;20449;-86
2022/10/09 10:15:51;;;;;;;10.20;3.23;;;18.60;45.50;;;;;;5026632;28;20469;-85
2022/10/09 10:18:19;;;;;;;6.40;2.30;;;18.60;46.90;;;;;;5027506;28;20452;-85
2022/10/09 10:20:49;;;;;;;7.53;2.63;;;18.80;44.20;;;;;;5027281;28;20447;-84
2022/10/09 10:23:39;;;;;;;9.27;2.87;;;18.50;43.40;;;;;;5026684;28;20445;-85
2022/10/09 10:26:14;;;;;;;8.10;3.27;;;18.90;43.30;;;;;;5026192;28;20494;-85
2022/10/09 10:28:48;;;;;;;7.53;2.77;;;19.40;42.30;;;;;;5025254;28;20529;-85
2022/10/09 10:31:32;;;;;;;10.53;2.37;;;19.10;39.90;;;;;;5027139;28;20988;-85
2022/10/09 10:34:02;;;;;;;9.83;2.20;;;19.60;41.50;;;;;;5025926;28;20459;-85
2022/10/09 10:36:32;;;;;;;7.73;2.63;;;19.10;36.00;;;;;;5026664;28;20465;-85
2022/10/09 10:39:08;;;;;;;6.97;2.60;;;19.00;38.40;;;;;;5026336;28;20453;-85
2022/10/09 10:41:41;;;;;;;11.20;2.83;;;19.10;40.40;;;;;;5026779;28;20455;-84
2022/10/09 10:44:18;;;;;;;8.50;4.53;;;19.60;39.00;;;;;;5025759;28;20460;-85
2022/10/09 10:46:51;;;;;;;7.30;2.97;;;20.00;37.00;;;;;;5026614;28;20538;-84
2022/10/09 10:49:20;;;;;;;11.93;4.13;;;20.00;35.30;;;;;;5025607;28;20491;-85
2022/10/09 10:51:57;;;;;;;5.20;3.17;;;20.10;35.40;;;;;;5026163;28;20444;-86
2022/10/09 10:54:34;;;;;;;6.80;2.70;;;20.50;35.00;;;;;;5026190;28;20466;-84
2022/10/09 10:57:08;;;;;;;7.40;2.30;;;20.60;32.60;;;;;;5025541;28;20476;-85
2022/10/09 10:59:39;;;;;;;5.93;2.73;;;20.90;31.70;;;;;;5025384;28;20487;-86
2022/10/09 11:02:37;;;;;;;9.60;2.73;;;21.30;31.20;;;;;;5024912;28;20970;-85
2022/10/09 11:05:19;;;;;;;7.27;2.80;;;21.20;29.40;;;;;;5025060;28;20855;-85
2022/10/09 11:07:58;;;;;;;10.00;2.60;;;21.10;27.80;;;;;;5025770;28;20514;-85
2022/10/09 11:10:29;;;;;;;6.33;2.17;;;20.80;27.40;;;;;;5025543;28;20871;-85
2022/10/09 11:13:04;;;;;;;7.20;2.37;;;21.20;27.90;;;;;;5025353;28;20470;-84
2022/10/09 11:15:38;;;;;;;6.13;2.20;;;21.60;24.80;;;;;;5024553;28;20889;-85
2022/10/09 11:18:23;;;;;;;8.13;2.00;;;21.70;25.30;;;;;;5024451;28;20453;-85
2022/10/09 11:21:15;;;;;;;6.40;1.70;;;22.10;25.00;;;;;;5024720;28;20480;-85
2022/10/09 11:23:56;;;;;;;7.03;2.07;;;22.70;23.10;;;;;;5022571;28;20476;-85
2022/10/09 11:26:30;;;;;;;8.63;2.80;;;22.70;21.20;;;;;;5021805;28;20480;-86
2022/10/09 11:29:02;;;;;;;5.20;2.03;;;22.40;19.30;;;;;;5018091;28;20438;-85
2022/10/09 11:31:36;;;;;;;7.50;2.07;;;22.60;19.60;;;;;;5008317;28;20457;-85
2022/10/09 11:34:10;;;;;;;8.80;2.47;;;22.50;19.50;;;;;;5001983;28;20457;-86
2022/10/09 11:36:40;;;;;;;7.33;2.33;;;22.70;18.20;;;;;;5017303;28;20503;-85
2022/10/09 11:39:16;;;;;;;6.57;2.13;;;22.90;17.10;;;;;;5022830;28;20988;-85
2022/10/09 11:41:45;;;;;;;18.13;2.57;;;22.50;16.00;;;;;;5021980;28;20792;-85
2022/10/09 11:44:35;;;;;;;7.90;2.23;;;22.80;18.10;;;;;;5022009;28;20834;-85
2022/10/09 11:47:09;;;;;;;13.23;2.73;;;22.40;15.50;;;;;;5021522;28;20488;-86
2022/10/09 11:49:48;;;;;;;6.80;1.93;;;22.60;16.50;;;;;;5021209;28;20456;-85
2022/10/09 11:52:25;;;;;;;8.00;1.70;;;22.70;14.10;;;;;;5022054;28;20464;-85
2022/10/09 11:54:53;;;;;;;7.77;1.87;;;22.80;14.20;;;;;;5020941;28;20465;-85
2022/10/09 11:57:27;;;;;;;5.60;2.17;;;22.60;13.00;;;;;;5022024;28;20798;-84
2022/10/09 12:00:05;;;;;;;8.90;2.47;;;22.50;14.00;;;;;;5023053;28;20526;-84
2022/10/09 12:02:32;;;;;;;11.50;2.20;;;22.90;14.30;;;;;;5022156;28;21042;-85
2022/10/09 12:04:59;;;;;;;6.13;1.80;;;22.30;13.90;;;;;;5021404;28;20468;-85
2022/10/09 12:07:28;;;;;;;10.50;2.03;;;22.60;14.30;;;;;;5021602;28;20484;-85
2022/10/09 12:10:02;;;;;;;5.40;2.00;;;23.10;12.20;;;;;;5022483;28;20467;-85
2022/10/09 12:12:29;;;;;;;9.63;1.80;;;22.90;7.40;;;;;;5021819;28;20949;-85
2022/10/09 12:14:57;;;;;;;8.67;1.90;;;23.30;6.90;;;;;;5021537;28;20457;-85
2022/10/09 12:17:34;;;;;;;4.70;1.37;;;23.10;8.70;;;;;;5022070;28;20508;-85
2022/10/09 12:20:05;;;;;;;5.70;1.70;;;23.00;8.10;;;;;;5021819;28;20457;-85
2022/10/09 12:22:35;;;;;;;4.90;1.60;;;23.00;6.70;;;;;;5021140;28;20461;-85
2022/10/09 12:25:07;;;;;;;8.03;1.83;;;23.00;6.70;;;;;;5021840;28;20472;-85
2022/10/09 12:27:37;;;;;;;5.83;1.40;;;23.00;6.70;;;;;;5021161;28;20953;-85
2022/10/09 12:30:19;;;;;;;6.50;1.67;;;23.70;5.20;;;;;;5022829;28;20459;-86
2022/10/09 12:32:50;;;;;;;4.67;1.67;;;23.00;3.20;;;;;;5021039;28;20449;-85
2022/10/09 12:35:24;;;;;;;8.60;1.97;;;23.30;4.40;;;;;;5020192;28;20473;-85
2022/10/09 12:37:51;;;;;;;8.90;1.47;;;23.50;3.50;;;;;;5021286;28;20460;-86
2022/10/09 12:40:24;;;;;;;5.70;1.70;;;23.30;1.10;;;;;;5020831;28;20847;-85
2022/10/09 12:42:52;;;;;;;6.13;1.70;;;23.50;3.50;;;;;;5021806;28;20457;-85
2022/10/09 12:45:22;;;;;;;6.70;1.60;;;23.30;2.20;;;;;;5021583;28;20477;-86
2022/10/09 12:47:49;;;;;;;5.67;1.37;;;23.60;3.00;;;;;;5020647;28;20477;-85
2022/10/09 12:50:23;;;;;;;5.80;1.77;;;23.70;2.70;;;;;;5020375;28;20453;-85
2022/10/09 12:52:52;;;;;;;5.10;1.67;;;23.90;1.00;;;;;;5020929;28;20945;-85
2022/10/09 12:55:26;;;;;;;7.57;2.00;;;23.70;1.00;;;;;;5021608;28;20465;-85
2022/10/09 12:57:54;;;;;;;4.37;1.37;;;23.40;1.00;;;;;;5021290;28;20971;-85
2022/10/09 13:00:21;;;;;;;6.27;1.90;;;24.10;1.00;;;;;;5023665;28;20834;-85
2022/10/09 13:02:48;;;;;;;5.13;1.50;;;23.40;1.00;;;;;;5023771;28;20449;-86
2022/10/09 13:05:15;;;;;;;5.73;1.30;;;23.70;2.60;;;;;;5023415;28;20479;-85
2022/10/09 13:07:42;;;;;;;5.20;1.40;;;23.50;1.00;;;;;;5024500;28;20476;-85
2022/10/09 13:10:18;;;;;;;5.13;1.63;;;23.60;1.00;;;;;;5025520;28;20536;-85
2022/10/09 13:12:51;;;;;;;5.97;1.77;;;23.40;1.00;;;;;;5024395;28;20463;-85